sensor_id;sensor_type;location;lat;lon;timestamp;temperature;humidity
21123;DHT22;10719;48.130;11.630;2023-04-03T00:00:32;1.80;99.90
21123;DHT22;10719;48.130;11.630;2023-04-03T00:02:58;1.90;99.90
21123;DHT22;10719;48.130;11.630;2023-04-03T00:05:23;1.90;99.90
21123;DHT22;10719;48.130;11.630;2023-04-03T00:07:49;1.90;99.90
21123;DHT22;10719;48.130;11.630;2023-04-03T00:10:15;2.00;99.90
21123;DHT22;10719;48.130;11.630;2023-04-03T00:12:41;1.90;99.90
21123;DHT22;10719;48.130;11.630;2023-04-03T00:15:07;1.90;99.90
21123;DHT22;10719;48.130;11.630;2023-04-03T00:17:33;1.90;99.90
21123;DHT22;10719;48.130;11.630;2023-04-03T00:19:58;1.90;99.90
21123;DHT22;10719;48.130;11.630;2023-04-03T00:22:24;2.00;99.90
21123;DHT22;10719;48.130;11.630;2023-04-03T00:24:52;2.00;99.90
21123;DHT22;10719;48.130;11.630;2023-04-03T00:27:17;1.90;99.90
21123;DHT22;10719;48.130;11.630;2023-04-03T00:29:43;1.90;99.90
21123;DHT22;10719;48.130;11.630;2023-04-03T00:32:08;1.90;99.90
21123;DHT22;10719;48.130;11.630;2023-04-03T00:34:34;1.90;99.90
21123;DHT22;10719;48.130;11.630;2023-04-03T00:36:59;1.90;99.90
21123;DHT22;10719;48.130;11.630;2023-04-03T00:39:25;1.80;99.90
21123;DHT22;10719;48.130;11.630;2023-04-03T00:41:51;1.80;99.90
21123;DHT22;10719;48.130;11.630;2023-04-03T00:44:23;1.90;99.90
21123;DHT22;10719;48.130;11.630;2023-04-03T00:47:11;2.00;99.90
21123;DHT22;10719;48.130;11.630;2023-04-03T00:49:37;1.90;99.90
21123;DHT22;10719;48.130;11.630;2023-04-03T00:52:05;2.00;99.90
21123;DHT22;10719;48.130;11.630;2023-04-03T00:54:32;1.90;99.90
21123;DHT22;10719;48.130;11.630;2023-04-03T00:57:01;2.00;99.90
21123;DHT22;10719;48.130;11.630;2023-04-03T00:59:31;1.90;99.90
21123;DHT22;10719;48.130;11.630;2023-04-03T01:01:58;1.90;99.90
21123;DHT22;10719;48.130;11.630;2023-04-03T01:04:30;1.80;99.90
21123;DHT22;10719;48.130;11.630;2023-04-03T01:06:59;1.90;99.90
21123;DHT22;10719;48.130;11.630;2023-04-03T01:09:26;1.90;99.90
21123;DHT22;10719;48.130;11.630;2023-04-03T01:11:51;1.90;99.90
21123;DHT22;10719;48.130;11.630;2023-04-03T01:14:17;1.90;99.90
21123;DHT22;10719;48.130;11.630;2023-04-03T01:16:50;1.90;99.90
21123;DHT22;10719;48.130;11.630;2023-04-03T01:19:17;1.90;99.90
21123;DHT22;10719;48.130;11.630;2023-04-03T01:22:23;1.90;99.90
21123;DHT22;10719;48.130;11.630;2023-04-03T01:24:51;2.00;99.90
21123;DHT22;10719;48.130;11.630;2023-04-03T01:27:18;2.00;99.90
21123;DHT22;10719;48.130;11.630;2023-04-03T01:29:44;2.00;99.90
21123;DHT22;10719;48.130;11.630;2023-04-03T01:32:10;1.90;99.90
21123;DHT22;10719;48.130;11.630;2023-04-03T01:34:35;1.90;99.90
21123;DHT22;10719;48.130;11.630;2023-04-03T01:37:01;2.00;99.90
21123;DHT22;10719;48.130;11.630;2023-04-03T01:39:26;2.00;99.90
21123;DHT22;10719;48.130;11.630;2023-04-03T01:41:52;1.90;99.90
21123;DHT22;10719;48.130;11.630;2023-04-03T01:44:18;1.90;99.90
21123;DHT22;10719;48.130;11.630;2023-04-03T01:46:45;1.80;99.90
21123;DHT22;10719;48.130;11.630;2023-04-03T01:49:10;1.80;99.90
21123;DHT22;10719;48.130;11.630;2023-04-03T01:51:36;1.90;99.90
21123;DHT22;10719;48.130;11.630;2023-04-03T01:54:02;1.90;99.90
21123;DHT22;10719;48.130;11.630;2023-04-03T01:56:28;1.80;99.90
21123;DHT22;10719;48.130;11.630;2023-04-03T01:58:53;2.00;99.90
21123;DHT22;10719;48.130;11.630;2023-04-03T02:01:19;2.10;99.90
21123;DHT22;10719;48.130;11.630;2023-04-03T02:03:44;2.10;99.90
21123;DHT22;10719;48.130;11.630;2023-04-03T02:06:10;2.10;99.90
21123;DHT22;10719;48.130;11.630;2023-04-03T02:08:36;2.10;99.90
21123;DHT22;10719;48.130;11.630;2023-04-03T02:11:01;2.00;99.90
21123;DHT22;10719;48.130;11.630;2023-04-03T02:13:27;2.10;99.90
21123;DHT22;10719;48.130;11.630;2023-04-03T02:15:53;2.10;99.90
21123;DHT22;10719;48.130;11.630;2023-04-03T02:18:18;2.10;99.90
21123;DHT22;10719;48.130;11.630;2023-04-03T02:20:45;2.20;99.90
21123;DHT22;10719;48.130;11.630;2023-04-03T02:23:11;2.20;99.90
21123;DHT22;10719;48.130;11.630;2023-04-03T02:25:37;2.20;99.90
21123;DHT22;10719;48.130;11.630;2023-04-03T02:28:02;2.20;99.90
21123;DHT22;10719;48.130;11.630;2023-04-03T02:30:28;2.20;99.90
21123;DHT22;10719;48.130;11.630;2023-04-03T02:32:53;2.30;99.90
21123;DHT22;10719;48.130;11.630;2023-04-03T02:35:19;2.20;99.90
21123;DHT22;10719;48.130;11.630;2023-04-03T02:37:45;2.10;99.90
21123;DHT22;10719;48.130;11.630;2023-04-03T02:40:11;2.20;99.90
21123;DHT22;10719;48.130;11.630;2023-04-03T02:42:37;2.10;99.90
21123;DHT22;10719;48.130;11.630;2023-04-03T02:45:03;2.10;99.90
21123;DHT22;10719;48.130;11.630;2023-04-03T02:47:28;2.20;99.90
21123;DHT22;10719;48.130;11.630;2023-04-03T02:49:54;2.20;99.90
21123;DHT22;10719;48.130;11.630;2023-04-03T02:52:20;2.20;99.90
21123;DHT22;10719;48.130;11.630;2023-04-03T02:54:45;2.20;99.90
21123;DHT22;10719;48.130;11.630;2023-04-03T02:57:11;2.10;99.90
21123;DHT22;10719;48.130;11.630;2023-04-03T02:59:37;2.20;99.90
21123;DHT22;10719;48.130;11.630;2023-04-03T03:02:07;2.20;99.90
21123;DHT22;10719;48.130;11.630;2023-04-03T03:04:33;2.20;99.90
21123;DHT22;10719;48.130;11.630;2023-04-03T03:06:58;2.20;99.90
21123;DHT22;10719;48.130;11.630;2023-04-03T03:09:24;2.20;99.90
21123;DHT22;10719;48.130;11.630;2023-04-03T03:11:50;2.20;99.90
21123;DHT22;10719;48.130;11.630;2023-04-03T03:14:16;2.20;99.90
21123;DHT22;10719;48.130;11.630;2023-04-03T03:16:42;2.20;99.90
21123;DHT22;10719;48.130;11.630;2023-04-03T03:19:07;2.20;99.90
21123;DHT22;10719;48.130;11.630;2023-04-03T03:21:33;2.10;99.90
21123;DHT22;10719;48.130;11.630;2023-04-03T03:23:58;2.10;99.90
21123;DHT22;10719;48.130;11.630;2023-04-03T03:26:24;2.10;99.90
21123;DHT22;10719;48.130;11.630;2023-04-03T03:28:50;2.10;99.90
21123;DHT22;10719;48.130;11.630;2023-04-03T03:31:16;2.20;99.90
21123;DHT22;10719;48.130;11.630;2023-04-03T03:33:41;2.20;99.90
21123;DHT22;10719;48.130;11.630;2023-04-03T03:36:07;2.20;99.90
21123;DHT22;10719;48.130;11.630;2023-04-03T03:38:33;2.20;99.90
21123;DHT22;10719;48.130;11.630;2023-04-03T03:40:58;2.20;99.90
21123;DHT22;10719;48.130;11.630;2023-04-03T03:43:24;2.20;99.90
21123;DHT22;10719;48.130;11.630;2023-04-03T03:45:53;2.20;99.90
21123;DHT22;10719;48.130;11.630;2023-04-03T03:48:19;2.10;99.90
21123;DHT22;10719;48.130;11.630;2023-04-03T03:50:45;2.20;99.90
21123;DHT22;10719;48.130;11.630;2023-04-03T03:53:11;2.10;99.90
21123;DHT22;10719;48.130;11.630;2023-04-03T03:55:36;2.20;99.90
21123;DHT22;10719;48.130;11.630;2023-04-03T03:58:02;2.10;99.90
21123;DHT22;10719;48.130;11.630;2023-04-03T04:00:29;2.10;99.90
21123;DHT22;10719;48.130;11.630;2023-04-03T04:02:55;2.10;99.90
21123;DHT22;10719;48.130;11.630;2023-04-03T04:05:21;2.10;99.90
21123;DHT22;10719;48.130;11.630;2023-04-03T04:07:47;2.10;99.90
21123;DHT22;10719;48.130;11.630;2023-04-03T04:10:12;2.20;99.90
21123;DHT22;10719;48.130;11.630;2023-04-03T04:12:39;2.20;99.90
21123;DHT22;10719;48.130;11.630;2023-04-03T04:15:05;2.20;99.90
21123;DHT22;10719;48.130;11.630;2023-04-03T04:17:31;2.20;99.90
21123;DHT22;10719;48.130;11.630;2023-04-03T04:19:56;2.20;99.90
21123;DHT22;10719;48.130;11.630;2023-04-03T04:22:22;2.20;99.90
21123;DHT22;10719;48.130;11.630;2023-04-03T04:24:47;2.10;99.90
21123;DHT22;10719;48.130;11.630;2023-04-03T04:27:13;2.00;99.90
21123;DHT22;10719;48.130;11.630;2023-04-03T04:29:38;2.10;99.90
21123;DHT22;10719;48.130;11.630;2023-04-03T04:32:04;2.10;99.90
21123;DHT22;10719;48.130;11.630;2023-04-03T04:34:30;2.10;99.90
21123;DHT22;10719;48.130;11.630;2023-04-03T04:36:55;2.20;99.90
21123;DHT22;10719;48.130;11.630;2023-04-03T04:39:21;2.20;99.90
21123;DHT22;10719;48.130;11.630;2023-04-03T04:41:47;2.20;99.90
21123;DHT22;10719;48.130;11.630;2023-04-03T04:44:12;2.20;99.90
21123;DHT22;10719;48.130;11.630;2023-04-03T04:46:38;2.20;99.90
21123;DHT22;10719;48.130;11.630;2023-04-03T04:49:03;2.20;99.90
21123;DHT22;10719;48.130;11.630;2023-04-03T04:51:30;2.10;99.90
21123;DHT22;10719;48.130;11.630;2023-04-03T04:53:55;2.10;99.90
21123;DHT22;10719;48.130;11.630;2023-04-03T04:56:21;2.20;99.90
21123;DHT22;10719;48.130;11.630;2023-04-03T04:58:46;2.20;99.90
21123;DHT22;10719;48.130;11.630;2023-04-03T05:01:12;2.20;99.90
21123;DHT22;10719;48.130;11.630;2023-04-03T05:03:37;2.20;99.90
21123;DHT22;10719;48.130;11.630;2023-04-03T05:06:03;2.20;99.90
21123;DHT22;10719;48.130;11.630;2023-04-03T05:08:29;2.20;99.90
21123;DHT22;10719;48.130;11.630;2023-04-03T05:10:54;2.10;99.90
21123;DHT22;10719;48.130;11.630;2023-04-03T05:13:20;2.20;99.90
21123;DHT22;10719;48.130;11.630;2023-04-03T05:15:46;2.20;99.90
21123;DHT22;10719;48.130;11.630;2023-04-03T05:18:12;2.20;99.90
21123;DHT22;10719;48.130;11.630;2023-04-03T05:20:38;2.10;99.90
21123;DHT22;10719;48.130;11.630;2023-04-03T05:23:04;2.10;99.90
21123;DHT22;10719;48.130;11.630;2023-04-03T05:25:30;2.10;99.90
21123;DHT22;10719;48.130;11.630;2023-04-03T05:27:55;2.10;99.90
21123;DHT22;10719;48.130;11.630;2023-04-03T05:30:21;2.20;99.90
21123;DHT22;10719;48.130;11.630;2023-04-03T05:32:47;2.20;99.90
21123;DHT22;10719;48.130;11.630;2023-04-03T05:35:13;2.20;99.90
21123;DHT22;10719;48.130;11.630;2023-04-03T05:37:38;2.20;99.90
21123;DHT22;10719;48.130;11.630;2023-04-03T05:40:05;2.20;99.90
21123;DHT22;10719;48.130;11.630;2023-04-03T05:42:31;2.20;99.90
21123;DHT22;10719;48.130;11.630;2023-04-03T05:44:57;2.10;99.90
21123;DHT22;10719;48.130;11.630;2023-04-03T05:47:22;2.10;99.90
21123;DHT22;10719;48.130;11.630;2023-04-03T05:49:48;2.10;99.90
21123;DHT22;10719;48.130;11.630;2023-04-03T05:52:28;2.20;99.90
21123;DHT22;10719;48.130;11.630;2023-04-03T05:54:55;2.20;99.90
21123;DHT22;10719;48.130;11.630;2023-04-03T05:57:20;2.20;99.90
21123;DHT22;10719;48.130;11.630;2023-04-03T05:59:47;2.20;99.90
21123;DHT22;10719;48.130;11.630;2023-04-03T06:02:19;2.30;99.90
21123;DHT22;10719;48.130;11.630;2023-04-03T06:04:44;2.30;99.90
21123;DHT22;10719;48.130;11.630;2023-04-03T06:07:13;2.40;99.90
21123;DHT22;10719;48.130;11.630;2023-04-03T06:09:41;2.30;99.90
21123;DHT22;10719;48.130;11.630;2023-04-03T06:12:07;2.40;99.90
21123;DHT22;10719;48.130;11.630;2023-04-03T06:14:33;2.40;99.90
21123;DHT22;10719;48.130;11.630;2023-04-03T06:16:59;2.40;99.90
21123;DHT22;10719;48.130;11.630;2023-04-03T06:19:25;2.50;99.90
21123;DHT22;10719;48.130;11.630;2023-04-03T06:21:51;2.50;99.90
21123;DHT22;10719;48.130;11.630;2023-04-03T06:24:17;2.50;99.90
21123;DHT22;10719;48.130;11.630;2023-04-03T06:26:43;2.60;99.90
21123;DHT22;10719;48.130;11.630;2023-04-03T06:29:09;2.60;99.90
21123;DHT22;10719;48.130;11.630;2023-04-03T06:31:35;2.60;99.90
21123;DHT22;10719;48.130;11.630;2023-04-03T06:34:02;2.60;99.90
21123;DHT22;10719;48.130;11.630;2023-04-03T06:36:28;2.60;99.90
21123;DHT22;10719;48.130;11.630;2023-04-03T06:38:54;2.70;99.90
21123;DHT22;10719;48.130;11.630;2023-04-03T06:41:20;2.70;99.90
21123;DHT22;10719;48.130;11.630;2023-04-03T06:43:46;2.80;99.90
21123;DHT22;10719;48.130;11.630;2023-04-03T06:46:18;2.70;99.90
21123;DHT22;10719;48.130;11.630;2023-04-03T06:48:44;2.80;99.90
21123;DHT22;10719;48.130;11.630;2023-04-03T06:51:19;2.80;99.90
21123;DHT22;10719;48.130;11.630;2023-04-03T06:53:46;2.90;99.90
21123;DHT22;10719;48.130;11.630;2023-04-03T06:56:12;3.00;99.90
21123;DHT22;10719;48.130;11.630;2023-04-03T06:58:38;3.10;99.90
21123;DHT22;10719;48.130;11.630;2023-04-03T07:01:04;3.00;99.90
21123;DHT22;10719;48.130;11.630;2023-04-03T07:03:30;3.10;99.90
21123;DHT22;10719;48.130;11.630;2023-04-03T07:05:55;3.20;99.90
21123;DHT22;10719;48.130;11.630;2023-04-03T07:08:21;3.20;99.90
21123;DHT22;10719;48.130;11.630;2023-04-03T07:10:48;3.30;99.90
21123;DHT22;10719;48.130;11.630;2023-04-03T07:13:14;3.40;99.90
21123;DHT22;10719;48.130;11.630;2023-04-03T07:15:40;3.30;99.90
21123;DHT22;10719;48.130;11.630;2023-04-03T07:18:05;3.30;99.90
21123;DHT22;10719;48.130;11.630;2023-04-03T07:20:31;3.40;99.90
21123;DHT22;10719;48.130;11.630;2023-04-03T07:22:57;3.50;99.90
21123;DHT22;10719;48.130;11.630;2023-04-03T07:25:22;3.60;99.90
21123;DHT22;10719;48.130;11.630;2023-04-03T07:27:48;3.60;99.90
21123;DHT22;10719;48.130;11.630;2023-04-03T07:30:14;3.80;99.90
21123;DHT22;10719;48.130;11.630;2023-04-03T07:32:40;3.80;99.90
21123;DHT22;10719;48.130;11.630;2023-04-03T07:35:06;3.70;99.90
21123;DHT22;10719;48.130;11.630;2023-04-03T07:37:32;3.70;99.90
21123;DHT22;10719;48.130;11.630;2023-04-03T07:39:57;3.80;99.90
21123;DHT22;10719;48.130;11.630;2023-04-03T07:42:25;3.70;99.90
21123;DHT22;10719;48.130;11.630;2023-04-03T07:44:53;3.80;99.90
21123;DHT22;10719;48.130;11.630;2023-04-03T07:47:19;3.60;99.90
21123;DHT22;10719;48.130;11.630;2023-04-03T07:49:45;3.60;99.90
21123;DHT22;10719;48.130;11.630;2023-04-03T07:52:11;3.40;99.90
21123;DHT22;10719;48.130;11.630;2023-04-03T07:54:37;3.50;99.90
21123;DHT22;10719;48.130;11.630;2023-04-03T07:57:03;3.50;99.90
21123;DHT22;10719;48.130;11.630;2023-04-03T07:59:29;3.50;99.90
21123;DHT22;10719;48.130;11.630;2023-04-03T08:01:55;3.50;99.90
21123;DHT22;10719;48.130;11.630;2023-04-03T08:04:20;3.60;99.90
21123;DHT22;10719;48.130;11.630;2023-04-03T08:06:46;3.50;99.90
21123;DHT22;10719;48.130;11.630;2023-04-03T08:09:13;3.50;99.90
21123;DHT22;10719;48.130;11.630;2023-04-03T08:11:39;3.70;99.90
21123;DHT22;10719;48.130;11.630;2023-04-03T08:14:05;3.60;99.90
21123;DHT22;10719;48.130;11.630;2023-04-03T08:16:31;3.70;99.90
21123;DHT22;10719;48.130;11.630;2023-04-03T08:18:57;3.80;99.90
21123;DHT22;10719;48.130;11.630;2023-04-03T08:21:22;3.70;99.90
21123;DHT22;10719;48.130;11.630;2023-04-03T08:23:49;3.70;99.90
21123;DHT22;10719;48.130;11.630;2023-04-03T08:26:20;3.80;99.90
21123;DHT22;10719;48.130;11.630;2023-04-03T08:28:47;3.90;99.90
21123;DHT22;10719;48.130;11.630;2023-04-03T08:31:16;3.90;99.90
21123;DHT22;10719;48.130;11.630;2023-04-03T08:33:42;4.00;99.90
21123;DHT22;10719;48.130;11.630;2023-04-03T08:36:17;4.00;99.90
21123;DHT22;10719;48.130;11.630;2023-04-03T08:38:42;4.00;99.90
21123;DHT22;10719;48.130;11.630;2023-04-03T08:49:53;3.90;99.90
21123;DHT22;10719;48.130;11.630;2023-04-03T08:52:44;4.00;99.90
21123;DHT22;10719;48.130;11.630;2023-04-03T08:55:25;4.20;99.90
21123;DHT22;10719;48.130;11.630;2023-04-03T09:00:25;4.30;99.90
21123;DHT22;10719;48.130;11.630;2023-04-03T09:02:54;4.30;99.90
21123;DHT22;10719;48.130;11.630;2023-04-03T09:05:57;4.50;99.90
21123;DHT22;10719;48.130;11.630;2023-04-03T09:08:28;4.50;99.90
21123;DHT22;10719;48.130;11.630;2023-04-03T09:11:20;4.60;99.90
21123;DHT22;10719;48.130;11.630;2023-04-03T09:14:12;4.70;99.90
21123;DHT22;10719;48.130;11.630;2023-04-03T09:21:57;4.90;99.90
21123;DHT22;10719;48.130;11.630;2023-04-03T09:24:23;4.70;99.90
21123;DHT22;10719;48.130;11.630;2023-04-03T09:29:21;5.00;99.90
21123;DHT22;10719;48.130;11.630;2023-04-03T09:31:49;5.10;99.90
21123;DHT22;10719;48.130;11.630;2023-04-03T09:34:26;5.00;99.90
21123;DHT22;10719;48.130;11.630;2023-04-03T09:36:55;4.90;99.90
21123;DHT22;10719;48.130;11.630;2023-04-03T09:39:27;5.00;99.90
21123;DHT22;10719;48.130;11.630;2023-04-03T09:42:05;4.90;99.90
21123;DHT22;10719;48.130;11.630;2023-04-03T09:44:38;4.80;99.90
21123;DHT22;10719;48.130;11.630;2023-04-03T09:50:19;4.90;99.90
21123;DHT22;10719;48.130;11.630;2023-04-03T09:52:50;4.80;99.90
21123;DHT22;10719;48.130;11.630;2023-04-03T09:55:24;5.00;99.90
21123;DHT22;10719;48.130;11.630;2023-04-03T09:57:58;5.10;99.90
21123;DHT22;10719;48.130;11.630;2023-04-03T10:02:56;5.10;99.90
21123;DHT22;10719;48.130;11.630;2023-04-03T10:05:41;5.10;99.90
21123;DHT22;10719;48.130;11.630;2023-04-03T10:08:33;5.00;99.90
21123;DHT22;10719;48.130;11.630;2023-04-03T10:11:10;4.90;99.90
21123;DHT22;10719;48.130;11.630;2023-04-03T10:13:49;5.00;99.90
21123;DHT22;10719;48.130;11.630;2023-04-03T10:16:18;5.00;99.90
21123;DHT22;10719;48.130;11.630;2023-04-03T10:18:53;4.70;99.90
21123;DHT22;10719;48.130;11.630;2023-04-03T10:24:52;4.20;99.90
21123;DHT22;10719;48.130;11.630;2023-04-03T10:30:31;4.20;99.90
21123;DHT22;10719;48.130;11.630;2023-04-03T10:39:51;4.10;99.90
21123;DHT22;10719;48.130;11.630;2023-04-03T10:47:51;3.50;99.90
21123;DHT22;10719;48.130;11.630;2023-04-03T10:50:27;3.20;99.90
21123;DHT22;10719;48.130;11.630;2023-04-03T10:56:15;3.00;99.90
21123;DHT22;10719;48.130;11.630;2023-04-03T10:58:45;3.00;99.90
21123;DHT22;10719;48.130;11.630;2023-04-03T11:01:16;2.90;99.90
21123;DHT22;10719;48.130;11.630;2023-04-03T11:03:47;3.00;99.90
21123;DHT22;10719;48.130;11.630;2023-04-03T11:06:16;3.30;99.90
21123;DHT22;10719;48.130;11.630;2023-04-03T11:09:03;3.40;99.90
21123;DHT22;10719;48.130;11.630;2023-04-03T11:11:36;3.60;99.90
21123;DHT22;10719;48.130;11.630;2023-04-03T11:14:09;3.70;99.90
21123;DHT22;10719;48.130;11.630;2023-04-03T11:16:43;4.00;99.90
21123;DHT22;10719;48.130;11.630;2023-04-03T11:19:18;4.00;99.90
21123;DHT22;10719;48.130;11.630;2023-04-03T11:22:08;4.10;99.90
21123;DHT22;10719;48.130;11.630;2023-04-03T11:24:39;4.20;99.90
21123;DHT22;10719;48.130;11.630;2023-04-03T11:27:17;4.50;99.90
21123;DHT22;10719;48.130;11.630;2023-04-03T11:29:48;4.60;99.90
21123;DHT22;10719;48.130;11.630;2023-04-03T11:34:52;4.50;99.90
21123;DHT22;10719;48.130;11.630;2023-04-03T11:38:00;4.60;99.90
21123;DHT22;10719;48.130;11.630;2023-04-03T11:40:29;4.60;99.90
21123;DHT22;10719;48.130;11.630;2023-04-03T11:43:07;4.60;99.90
21123;DHT22;10719;48.130;11.630;2023-04-03T11:45:55;4.60;99.90
21123;DHT22;10719;48.130;11.630;2023-04-03T11:50:54;4.80;99.90
21123;DHT22;10719;48.130;11.630;2023-04-03T11:53:39;4.90;99.90
21123;DHT22;10719;48.130;11.630;2023-04-03T11:59:19;4.90;99.90
21123;DHT22;10719;48.130;11.630;2023-04-03T12:04:17;5.10;99.90
21123;DHT22;10719;48.130;11.630;2023-04-03T12:07:00;5.10;99.90
21123;DHT22;10719;48.130;11.630;2023-04-03T12:11:59;5.00;99.90
21123;DHT22;10719;48.130;11.630;2023-04-03T12:14:26;5.20;99.90
21123;DHT22;10719;48.130;11.630;2023-04-03T12:16:54;5.10;99.90
21123;DHT22;10719;48.130;11.630;2023-04-03T12:19:38;5.00;99.90
21123;DHT22;10719;48.130;11.630;2023-04-03T12:22:14;5.20;99.90
21123;DHT22;10719;48.130;11.630;2023-04-03T12:24:43;5.40;99.90
21123;DHT22;10719;48.130;11.630;2023-04-03T12:40:45;5.70;99.90
21123;DHT22;10719;48.130;11.630;2023-04-03T12:46:09;6.50;99.90
21123;DHT22;10719;48.130;11.630;2023-04-03T12:48:58;7.00;99.90
21123;DHT22;10719;48.130;11.630;2023-04-03T12:51:34;7.60;99.90
21123;DHT22;10719;48.130;11.630;2023-04-03T12:54:13;7.60;99.90
21123;DHT22;10719;48.130;11.630;2023-04-03T12:56:40;7.50;99.90
21123;DHT22;10719;48.130;11.630;2023-04-03T13:02:00;7.30;99.90
21123;DHT22;10719;48.130;11.630;2023-04-03T13:04:31;7.80;99.90
21123;DHT22;10719;48.130;11.630;2023-04-03T13:06:57;7.80;99.90
21123;DHT22;10719;48.130;11.630;2023-04-03T13:09:26;8.80;99.90
21123;DHT22;10719;48.130;11.630;2023-04-03T13:12:02;9.60;99.90
21123;DHT22;10719;48.130;11.630;2023-04-03T13:14:29;9.60;99.90
21123;DHT22;10719;48.130;11.630;2023-04-03T13:17:03;9.40;99.90
21123;DHT22;10719;48.130;11.630;2023-04-03T13:19:30;10.10;99.90
21123;DHT22;10719;48.130;11.630;2023-04-03T13:22:10;9.70;99.90
21123;DHT22;10719;48.130;11.630;2023-04-03T13:24:39;10.00;99.90
21123;DHT22;10719;48.130;11.630;2023-04-03T13:27:05;12.20;99.90
21123;DHT22;10719;48.130;11.630;2023-04-03T13:29:34;12.30;99.90
21123;DHT22;10719;48.130;11.630;2023-04-03T13:32:03;13.00;99.90
21123;DHT22;10719;48.130;11.630;2023-04-03T13:34:41;12.70;99.90
21123;DHT22;10719;48.130;11.630;2023-04-03T13:37:11;11.80;99.90
21123;DHT22;10719;48.130;11.630;2023-04-03T13:39:44;12.60;99.90
21123;DHT22;10719;48.130;11.630;2023-04-03T13:42:22;11.70;99.90
21123;DHT22;10719;48.130;11.630;2023-04-03T13:44:49;11.60;99.90
21123;DHT22;10719;48.130;11.630;2023-04-03T13:47:19;12.30;99.90
21123;DHT22;10719;48.130;11.630;2023-04-03T13:55:23;11.00;99.90
21123;DHT22;10719;48.130;11.630;2023-04-03T13:58:01;11.00;99.90
21123;DHT22;10719;48.130;11.630;2023-04-03T14:03:36;11.50;99.90
21123;DHT22;10719;48.130;11.630;2023-04-03T14:06:05;10.50;99.90
21123;DHT22;10719;48.130;11.630;2023-04-03T14:08:31;9.20;99.90
21123;DHT22;10719;48.130;11.630;2023-04-03T14:10:57;8.90;99.90
21123;DHT22;10719;48.130;11.630;2023-04-03T14:13:22;8.60;99.90
21123;DHT22;10719;48.130;11.630;2023-04-03T14:15:49;8.50;99.90
21123;DHT22;10719;48.130;11.630;2023-04-03T14:18:17;8.30;99.90
21123;DHT22;10719;48.130;11.630;2023-04-03T14:20:43;8.20;99.90
21123;DHT22;10719;48.130;11.630;2023-04-03T14:23:09;7.90;99.90
21123;DHT22;10719;48.130;11.630;2023-04-03T14:25:36;8.00;99.90
21123;DHT22;10719;48.130;11.630;2023-04-03T14:28:14;7.80;99.90
21123;DHT22;10719;48.130;11.630;2023-04-03T14:30:41;7.80;99.90
21123;DHT22;10719;48.130;11.630;2023-04-03T14:33:06;7.60;99.90
21123;DHT22;10719;48.130;11.630;2023-04-03T14:35:32;7.60;99.90
21123;DHT22;10719;48.130;11.630;2023-04-03T14:37:58;7.50;99.90
21123;DHT22;10719;48.130;11.630;2023-04-03T14:40:26;7.50;99.90
21123;DHT22;10719;48.130;11.630;2023-04-03T14:42:52;7.30;99.90
21123;DHT22;10719;48.130;11.630;2023-04-03T14:45:20;7.30;99.90
21123;DHT22;10719;48.130;11.630;2023-04-03T14:47:50;7.20;99.90
21123;DHT22;10719;48.130;11.630;2023-04-03T14:50:20;6.90;99.90
21123;DHT22;10719;48.130;11.630;2023-04-03T14:52:46;6.90;99.90
21123;DHT22;10719;48.130;11.630;2023-04-03T14:55:15;7.60;99.90
21123;DHT22;10719;48.130;11.630;2023-04-03T14:57:41;7.90;99.90
21123;DHT22;10719;48.130;11.630;2023-04-03T15:00:18;7.50;99.90
21123;DHT22;10719;48.130;11.630;2023-04-03T15:02:45;7.70;99.90
21123;DHT22;10719;48.130;11.630;2023-04-03T15:05:11;7.80;99.90
21123;DHT22;10719;48.130;11.630;2023-04-03T15:07:47;7.30;99.90
21123;DHT22;10719;48.130;11.630;2023-04-03T15:10:18;7.10;99.90
21123;DHT22;10719;48.130;11.630;2023-04-03T15:12:45;6.80;99.90
21123;DHT22;10719;48.130;11.630;2023-04-03T15:15:11;6.60;99.90
21123;DHT22;10719;48.130;11.630;2023-04-03T15:17:37;6.40;99.90
21123;DHT22;10719;48.130;11.630;2023-04-03T15:20:10;6.00;99.90
21123;DHT22;10719;48.130;11.630;2023-04-03T15:22:36;6.10;99.90
21123;DHT22;10719;48.130;11.630;2023-04-03T15:25:02;6.20;99.90
21123;DHT22;10719;48.130;11.630;2023-04-03T15:27:28;6.00;99.90
21123;DHT22;10719;48.130;11.630;2023-04-03T15:29:54;6.00;99.90
21123;DHT22;10719;48.130;11.630;2023-04-03T15:32:19;5.80;99.90
21123;DHT22;10719;48.130;11.630;2023-04-03T15:34:45;5.80;99.90
21123;DHT22;10719;48.130;11.630;2023-04-03T15:37:10;5.70;99.90
21123;DHT22;10719;48.130;11.630;2023-04-03T15:39:36;5.70;99.90
21123;DHT22;10719;48.130;11.630;2023-04-03T15:42:02;5.70;99.90
21123;DHT22;10719;48.130;11.630;2023-04-03T15:44:32;5.70;99.90
21123;DHT22;10719;48.130;11.630;2023-04-03T15:46:59;5.80;99.90
21123;DHT22;10719;48.130;11.630;2023-04-03T15:49:25;6.00;99.90
21123;DHT22;10719;48.130;11.630;2023-04-03T15:51:51;6.30;99.90
21123;DHT22;10719;48.130;11.630;2023-04-03T15:54:17;6.00;99.90
21123;DHT22;10719;48.130;11.630;2023-04-03T15:56:42;5.70;99.90
21123;DHT22;10719;48.130;11.630;2023-04-03T15:59:08;5.50;99.90
21123;DHT22;10719;48.130;11.630;2023-04-03T16:01:34;5.30;99.90
21123;DHT22;10719;48.130;11.630;2023-04-03T16:04:00;5.30;99.90
21123;DHT22;10719;48.130;11.630;2023-04-03T16:06:26;5.20;99.90
21123;DHT22;10719;48.130;11.630;2023-04-03T16:08:54;5.20;99.90
21123;DHT22;10719;48.130;11.630;2023-04-03T16:11:24;5.10;99.90
21123;DHT22;10719;48.130;11.630;2023-04-03T16:13:50;5.10;99.90
21123;DHT22;10719;48.130;11.630;2023-04-03T16:16:15;4.90;99.90
21123;DHT22;10719;48.130;11.630;2023-04-03T16:18:41;4.80;99.90
21123;DHT22;10719;48.130;11.630;2023-04-03T16:21:07;4.70;99.90
21123;DHT22;10719;48.130;11.630;2023-04-03T16:23:33;4.70;99.90
21123;DHT22;10719;48.130;11.630;2023-04-03T16:25:59;4.60;99.90
21123;DHT22;10719;48.130;11.630;2023-04-03T16:28:24;4.50;99.90
21123;DHT22;10719;48.130;11.630;2023-04-03T16:30:50;4.60;99.90
21123;DHT22;10719;48.130;11.630;2023-04-03T16:33:16;4.50;99.90
21123;DHT22;10719;48.130;11.630;2023-04-03T16:35:42;4.60;99.90
21123;DHT22;10719;48.130;11.630;2023-04-03T16:38:08;4.60;99.90
21123;DHT22;10719;48.130;11.630;2023-04-03T16:40:34;4.70;99.90
21123;DHT22;10719;48.130;11.630;2023-04-03T16:43:01;4.80;99.90
21123;DHT22;10719;48.130;11.630;2023-04-03T16:45:27;4.80;99.90
21123;DHT22;10719;48.130;11.630;2023-04-03T16:47:53;4.70;99.90
21123;DHT22;10719;48.130;11.630;2023-04-03T16:50:18;4.70;99.90
21123;DHT22;10719;48.130;11.630;2023-04-03T16:52:46;4.60;99.90
21123;DHT22;10719;48.130;11.630;2023-04-03T16:55:12;4.60;99.90
21123;DHT22;10719;48.130;11.630;2023-04-03T16:57:37;4.70;99.90
21123;DHT22;10719;48.130;11.630;2023-04-03T17:00:03;4.70;99.90
21123;DHT22;10719;48.130;11.630;2023-04-03T17:02:30;4.60;99.90
21123;DHT22;10719;48.130;11.630;2023-04-03T17:04:56;4.60;99.90